Time;durP1;ratioP1;P1;durP2;ratioP2;P2;SDS_P1;SDS_P2;PMS_P1;PMS_P2;Temp;Humidity;BMP_temperature;BMP_pressure;BME280_temperature;BME280_humidity;BME280_pressure;Samples;Min_cycle;Max_cycle;Signal;HPM_P1;HPM_P2
2023/04/03 00:02:16;;;;;;;1.97;1.70;;;4.80;99.90;;;5.33;100.00;99074.84;4996990;28;20535;-78
2023/04/03 00:04:47;;;;;;;3.57;1.93;;;4.80;99.90;;;5.33;100.00;99070.47;4987068;28;20460;-78
2023/04/03 00:07:17;;;;;;;2.30;1.83;;;4.90;99.90;;;5.30;100.00;99080.28;4997752;28;20495;-78
2023/04/03 00:09:46;;;;;;;3.07;2.20;;;4.80;99.90;;;5.29;100.00;99076.88;4989541;28;20464;-78
2023/04/03 00:12:18;;;;;;;2.17;1.70;;;4.80;99.90;;;5.28;100.00;99074.38;4989480;28;20467;-79
2023/04/03 00:14:48;;;;;;;4.60;1.90;;;4.80;99.90;;;5.26;100.00;99074.53;4979776;28;20544;-79
2023/04/03 00:17:18;;;;;;;10.50;1.77;;;4.80;99.90;;;5.26;100.00;99082.31;4983068;28;20472;-78
2023/04/03 00:19:48;;;;;;;1.60;1.50;;;4.70;99.90;;;5.25;100.00;99072.88;4974490;28;20487;-79
2023/04/03 00:22:18;;;;;;;6.77;1.93;;;4.70;99.90;;;5.27;100.00;99080.56;4983180;28;20501;-78
2023/04/03 00:24:48;;;;;;;3.43;1.97;;;4.70;99.90;;;5.29;100.00;99078.63;4985158;28;20557;-78
2023/04/03 00:27:19;;;;;;;2.60;2.07;;;4.70;99.90;;;5.28;100.00;99075.22;4976156;28;20477;-79
2023/04/03 00:29:50;;;;;;;5.70;2.20;;;4.70;99.90;;;5.25;100.00;99082.44;4990429;28;20562;-78
2023/04/03 00:32:21;;;;;;;2.13;2.03;;;4.80;99.90;;;5.25;100.00;99074.66;4985237;28;20473;-78
2023/04/03 00:34:50;;;;;;;2.60;1.60;;;4.70;99.90;;;5.23;100.00;99074.81;4986922;28;20540;-78
2023/04/03 00:37:20;;;;;;;5.27;1.70;;;4.70;99.90;;;5.24;100.00;99071.22;4979832;28;20509;-79
2023/04/03 00:39:50;;;;;;;1.70;1.60;;;4.70;99.90;;;5.26;100.00;99071.94;4990666;28;21014;-78
2023/04/03 00:42:21;;;;;;;2.20;1.70;;;4.70;99.90;;;5.21;100.00;99081.03;4988697;28;20501;-78
2023/04/03 00:45:29;;;;;;;4.70;1.57;;;4.80;99.90;;;5.20;100.00;99080.25;4984426;28;20519;-79
2023/04/03 00:48:01;;;;;;;1.50;1.40;;;4.80;99.90;;;5.19;100.00;99077.75;4980795;28;20499;-78
2023/04/03 00:50:31;;;;;;;2.80;1.70;;;4.70;99.90;;;5.17;100.00;99085.69;4990489;28;20479;-79
2023/04/03 00:53:02;;;;;;;1.80;1.53;;;4.70;99.90;;;5.18;100.00;99079.53;4985540;28;20483;-79
2023/04/03 00:55:32;;;;;;;1.47;1.37;;;4.70;99.90;;;5.19;100.00;99078.59;4976978;28;20487;-79
2023/04/03 00:58:05;;;;;;;3.87;1.97;;;4.70;99.90;;;5.18;100.00;99079.53;4977188;28;20504;-79
2023/04/03 01:00:36;;;;;;;2.07;1.50;;;4.70;99.90;;;5.20;100.00;99074.22;4984917;28;20486;-79
2023/04/03 01:03:07;;;;;;;2.80;1.57;;;4.70;99.90;;;5.18;100.00;99066.56;4984109;28;20457;-79
2023/04/03 01:05:38;;;;;;;1.90;1.60;;;4.60;99.90;;;5.16;100.00;99068.47;4985249;28;20567;-78
2023/04/03 01:08:08;;;;;;;1.70;1.60;;;4.70;99.90;;;5.15;100.00;99074.59;4987973;28;20507;-79
2023/04/03 01:10:38;;;;;;;2.70;1.60;;;4.60;99.90;;;5.10;100.00;99074.19;4990297;28;20946;-78
2023/04/03 01:13:25;;;;;;;1.60;1.50;;;4.60;99.90;;;5.08;100.00;99076.88;4984122;28;20461;-78
2023/04/03 01:15:54;;;;;;;3.10;1.80;;;4.50;99.90;;;5.06;100.00;99073.63;4978733;28;21065;-79
2023/04/03 01:18:26;;;;;;;1.83;1.70;;;4.50;99.90;;;5.07;100.00;99071.81;4988029;28;21051;-78
2023/04/03 01:21:38;;;;;;;2.20;2.00;;;4.50;99.90;;;5.06;100.00;99072.78;4985221;28;21121;-79
2023/04/03 01:24:34;;;;;;;2.70;2.10;;;4.50;99.90;;;5.07;100.00;99079.59;4994623;28;21020;-78
2023/04/03 01:27:07;;;;;;;2.00;1.80;;;4.50;99.90;;;5.06;100.00;99073.63;4984870;28;20559;-79
2023/04/03 01:29:39;;;;;;;2.70;1.73;;;4.50;99.90;;;5.00;100.00;99084.47;4983725;28;20460;-78
2023/04/03 01:32:11;;;;;;;3.53;1.80;;;4.50;99.90;;;4.98;100.00;99076.00;4981813;28;20517;-79
2023/04/03 01:34:41;;;;;;;2.47;1.90;;;4.50;99.90;;;4.91;100.00;99071.44;4977752;28;20473;-78
2023/04/03 01:37:12;;;;;;;1.93;1.73;;;4.40;99.90;;;4.88;100.00;99072.53;4983830;28;20457;-79
2023/04/03 01:39:42;;;;;;;2.33;1.60;;;4.40;99.90;;;4.87;100.00;99063.09;4993696;28;20471;-79
2023/04/03 01:42:13;;;;;;;1.80;1.70;;;4.40;99.90;;;4.89;100.00;99066.41;4982908;28;20866;-79
2023/04/03 01:44:42;;;;;;;3.63;1.50;;;4.30;99.90;;;4.88;100.00;99064.75;4986052;28;20886;-78
2023/04/03 01:47:13;;;;;;;5.80;1.60;;;4.30;99.90;;;4.85;100.00;99059.81;4981015;28;20476;-79
2023/04/03 01:49:43;;;;;;;1.90;1.70;;;4.30;99.90;;;4.80;100.00;99055.94;4978577;28;20558;-78
2023/04/03 01:52:13;;;;;;;3.10;1.70;;;4.30;99.90;;;4.80;100.00;99058.53;4986401;28;20452;-78
2023/04/03 01:54:44;;;;;;;1.83;1.73;;;4.20;99.90;;;4.77;100.00;99056.22;4981824;28;20474;-79
2023/04/03 01:57:15;;;;;;;3.20;1.90;;;4.20;99.90;;;4.77;100.00;99066.56;4988846;28;20836;-78
2023/04/03 01:59:45;;;;;;;3.60;1.80;;;4.10;99.90;;;4.76;100.00;99068.34;4990221;28;20467;-80
2023/04/03 02:02:16;;;;;;;2.60;1.77;;;4.10;99.90;;;4.70;100.00;99055.06;4984404;28;20516;-78
2023/04/03 02:04:46;;;;;;;2.10;1.60;;;4.10;99.90;;;4.65;100.00;99065.00;4980732;28;20968;-78
2023/04/03 02:07:15;;;;;;;4.70;1.63;;;4.10;99.90;;;4.66;100.00;99058.84;4976008;28;20469;-78
2023/04/03 02:09:46;;;;;;;1.90;1.80;;;4.10;99.90;;;4.62;100.00;99062.66;4978645;28;20469;-79
2023/04/03 02:12:15;;;;;;;2.00;1.60;;;4.10;99.90;;;4.62;100.00;99058.28;4985890;28;20470;-79
2023/04/03 02:14:45;;;;;;;1.73;1.63;;;4.00;99.90;;;4.56;100.00;99053.59;4993455;28;20492;-78
2023/04/03 02:17:16;;;;;;;2.50;1.93;;;3.90;99.90;;;4.49;100.00;99058.44;4981002;28;20522;-79
2023/04/03 02:19:45;;;;;;;3.23;1.80;;;3.90;99.90;;;4.51;100.00;99059.13;4976036;28;20473;-79
2023/04/03 02:22:14;;;;;;;5.20;1.90;;;3.90;99.90;;;4.48;100.00;99059.38;4998888;28;20510;-79
2023/04/03 02:24:44;;;;;;;5.33;1.47;;;3.90;99.90;;;4.43;100.00;99056.38;4982630;28;20512;-78
2023/04/03 02:27:15;;;;;;;4.40;2.07;;;3.90;99.90;;;4.40;100.00;99053.19;4982354;28;20481;-78
2023/04/03 02:29:45;;;;;;;6.53;1.70;;;3.80;99.90;;;4.40;100.00;99061.78;4971154;28;20528;-78
2023/04/03 02:32:17;;;;;;;1.87;1.60;;;3.80;99.90;;;4.39;100.00;99062.72;4976172;28;20470;-78
2023/04/03 02:34:47;;;;;;;1.83;1.40;;;3.80;99.90;;;4.38;100.00;99062.84;4984868;28;21043;-78
2023/04/03 02:37:16;;;;;;;1.83;1.60;;;3.80;99.90;;;4.34;100.00;99067.44;4980190;28;20549;-78
2023/04/03 02:39:47;;;;;;;2.00;1.60;;;3.70;99.90;;;4.30;100.00;99063.47;4990740;28;20488;-79
2023/04/03 02:42:17;;;;;;;2.63;2.07;;;3.70;99.90;;;4.26;100.00;99067.25;4978431;28;22974;-78
2023/04/03 02:44:48;;;;;;;2.50;1.50;;;3.70;99.90;;;4.24;100.00;99056.19;4974432;28;20452;-78
2023/04/03 02:47:20;;;;;;;1.50;1.40;;;3.60;99.90;;;4.18;100.00;99064.44;4985510;28;20562;-78
2023/04/03 02:49:49;;;;;;;3.70;1.90;;;3.60;99.90;;;4.10;100.00;99066.81;4988917;28;20566;-79
2023/04/03 02:52:19;;;;;;;8.67;2.00;;;3.60;99.90;;;4.03;100.00;99070.81;4992243;28;20465;-78
2023/04/03 02:54:49;;;;;;;5.13;1.70;;;3.50;99.90;;;4.04;100.00;99067.28;4991668;28;21059;-79
2023/04/03 02:57:20;;;;;;;1.67;1.40;;;3.40;99.90;;;3.97;100.00;99068.72;4978105;28;20545;-79
2023/04/03 02:59:50;;;;;;;2.40;1.70;;;3.50;99.90;;;3.94;100.00;99066.38;4984807;28;20548;-79
2023/04/03 03:02:21;;;;;;;3.47;1.80;;;3.40;99.90;;;3.91;100.00;99069.19;4990387;28;20936;-78
2023/04/03 03:04:52;;;;;;;2.30;1.63;;;3.30;99.90;;;3.87;100.00;99062.63;4991006;28;20468;-78
2023/04/03 03:07:23;;;;;;;2.30;1.90;;;3.30;99.90;;;3.79;100.00;99068.38;4978386;28;21064;-78
2023/04/03 03:09:53;;;;;;;2.30;1.90;;;3.30;99.90;;;3.72;100.00;99061.22;4980453;28;20472;-78
2023/04/03 03:12:24;;;;;;;2.00;1.63;;;3.30;99.90;;;3.74;100.00;99067.09;4991715;28;20478;-79
2023/04/03 03:14:54;;;;;;;2.00;1.90;;;3.20;99.90;;;3.68;100.00;99065.00;4983423;28;20482;-79
2023/04/03 03:17:26;;;;;;;3.33;2.37;;;3.20;99.90;;;3.60;100.00;99067.34;4976782;28;20458;-76
2023/04/03 03:19:56;;;;;;;3.73;1.70;;;3.10;99.90;;;3.60;100.00;99062.16;4978963;28;20526;-79
2023/04/03 03:22:27;;;;;;;6.60;1.93;;;3.10;99.90;;;3.63;100.00;99067.09;4979983;28;20496;-79
2023/04/03 03:25:00;;;;;;;4.53;2.03;;;3.10;99.90;;;3.59;100.00;99055.34;4985393;28;20491;-80
2023/04/03 03:27:30;;;;;;;10.23;2.30;;;3.10;99.90;;;3.56;100.00;99069.34;4984285;28;20522;-79
2023/04/03 03:29:59;;;;;;;3.10;2.73;;;3.10;99.90;;;3.57;100.00;99075.34;4986393;28;20477;-80
2023/04/03 03:32:31;;;;;;;5.40;1.97;;;3.00;99.90;;;3.52;100.00;99065.34;4979258;28;20464;-79
2023/04/03 03:35:00;;;;;;;2.13;1.93;;;3.00;99.90;;;3.54;100.00;99066.03;4986920;28;21033;-80
2023/04/03 03:37:30;;;;;;;2.60;2.30;;;2.90;99.90;;;3.48;100.00;99064.75;4990384;28;20496;-79
2023/04/03 03:39:59;;;;;;;4.20;2.10;;;2.90;99.90;;;3.48;100.00;99062.16;4979481;28;20467;-79
2023/04/03 03:42:29;;;;;;;2.17;1.87;;;2.90;99.90;;;3.41;100.00;99063.56;4990955;28;21041;-80
2023/04/03 03:45:00;;;;;;;2.00;1.80;;;2.90;99.90;;;3.43;100.00;99061.72;4984277;28;21672;-80
2023/04/03 03:47:32;;;;;;;2.50;2.20;;;2.80;99.90;;;3.40;100.00;99058.53;4993374;28;20460;-80
2023/04/03 03:50:00;;;;;;;5.30;2.23;;;2.80;99.90;;;3.37;100.00;99067.31;4986671;28;20481;-79
2023/04/03 03:52:30;;;;;;;9.40;2.60;;;2.80;99.90;;;3.37;100.00;99062.16;4980804;28;20860;-79
2023/04/03 03:55:00;;;;;;;5.80;2.00;;;2.80;99.90;;;3.34;100.00;99071.91;4980910;28;20544;-80
2023/04/03 03:57:31;;;;;;;2.50;2.30;;;2.70;99.90;;;3.33;100.00;99071.06;4982564;28;20838;-79
2023/04/03 04:00:01;;;;;;;4.80;1.97;;;2.70;99.90;;;3.24;100.00;99073.53;4982482;28;20488;-79
2023/04/03 04:02:32;;;;;;;2.23;1.70;;;2.80;99.90;;;3.22;100.00;99073.69;4983710;28;20496;-79
2023/04/03 04:05:02;;;;;;;2.73;1.60;;;2.70;99.90;;;3.20;100.00;99072.13;4983838;28;20555;-79
2023/04/03 04:07:32;;;;;;;2.30;1.83;;;2.70;99.90;;;3.17;100.00;99083.50;4982441;28;20472;-80
2023/04/03 04:10:03;;;;;;;3.90;2.40;;;2.60;99.90;;;3.15;100.00;99076.81;4974325;28;20486;-80
2023/04/03 04:12:35;;;;;;;5.40;2.20;;;2.60;99.90;;;3.12;100.00;99077.06;4977238;28;21270;-80
2023/04/03 04:15:05;;;;;;;1.90;1.80;;;2.60;99.90;;;3.07;100.00;99076.56;4985453;28;20625;-81
2023/04/03 04:17:37;;;;;;;2.30;2.10;;;2.60;99.90;;;3.07;100.00;99079.97;4985267;28;20465;-80
2023/04/03 04:20:12;;;;;;;1.93;1.70;;;2.50;99.90;;;3.02;100.00;99077.72;4982344;28;20529;-79
2023/04/03 04:22:40;;;;;;;2.70;1.80;;;2.50;99.90;;;3.01;100.00;99070.94;4986557;28;20910;-80
2023/04/03 04:25:19;;;;;;;2.20;1.97;;;2.50;99.90;;;2.99;100.00;99069.38;4988497;28;20880;-80
2023/04/03 04:27:48;;;;;;;2.10;1.90;;;2.50;99.90;;;2.97;100.00;99073.84;4981515;28;21114;-80
2023/04/03 04:30:19;;;;;;;1.63;1.40;;;2.40;99.90;;;2.98;100.00;99075.50;4981171;28;20568;-80
2023/04/03 04:32:49;;;;;;;2.40;1.90;;;2.40;99.90;;;2.94;100.00;99076.66;4987466;28;20531;-80
2023/04/03 04:35:20;;;;;;;6.13;2.20;;;2.40;99.90;;;2.91;100.00;99069.97;4979446;28;20477;-80
2023/04/03 04:37:49;;;;;;;3.93;2.40;;;2.40;99.90;;;2.91;100.00;99079.47;4977853;28;20564;-80
2023/04/03 04:40:18;;;;;;;1.93;1.80;;;2.40;99.90;;;2.89;100.00;99076.16;4985427;28;20479;-80
2023/04/03 04:42:49;;;;;;;7.90;1.97;;;2.40;99.90;;;2.91;100.00;99076.91;4979628;28;20488;-80
2023/04/03 04:45:19;;;;;;;4.40;1.60;;;2.30;99.90;;;2.92;100.00;99075.94;4982701;28;20550;-80
2023/04/03 04:47:52;;;;;;;6.13;1.70;;;2.30;99.90;;;2.90;100.00;99076.06;4987168;28;20457;-80
2023/04/03 04:50:23;;;;;;;6.27;2.00;;;2.30;99.90;;;2.86;100.00;99076.41;4982277;28;20476;-80
2023/04/03 04:52:53;;;;;;;1.53;1.43;;;2.40;99.90;;;2.86;100.00;99076.41;4997836;28;20465;-80
2023/04/03 04:55:23;;;;;;;2.63;1.80;;;2.30;99.90;;;2.87;100.00;99081.47;4991342;28;20463;-80
2023/04/03 04:57:52;;;;;;;3.93;1.83;;;2.20;99.90;;;2.87;100.00;99076.28;4999862;28;20872;-80
2023/04/03 05:00:22;;;;;;;2.07;1.77;;;2.20;99.90;;;2.83;100.00;99081.78;4983473;28;20966;-80
2023/04/03 05:02:55;;;;;;;4.73;2.13;;;2.30;99.90;;;2.80;100.00;99082.03;4982587;28;20826;-80
2023/04/03 05:05:26;;;;;;;2.77;1.70;;;2.20;99.90;;;2.78;100.00;99078.72;4984370;28;20847;-81
2023/04/03 05:07:56;;;;;;;3.13;1.80;;;2.20;99.90;;;2.75;100.00;99084.09;4999951;28;20979;-81
2023/04/03 05:10:27;;;;;;;4.07;1.60;;;2.20;99.90;;;2.70;100.00;99092.22;4989411;28;20475;-81
2023/04/03 05:12:57;;;;;;;2.73;1.70;;;2.20;99.90;;;2.69;100.00;99079.41;4988137;28;20486;-80
2023/04/03 05:15:27;;;;;;;2.10;1.80;;;2.20;99.90;;;2.67;100.00;99089.03;4970896;28;20468;-79
2023/04/03 05:17:59;;;;;;;2.80;1.77;;;2.10;99.90;;;2.71;100.00;99088.66;4979401;28;20560;-79
2023/04/03 05:20:29;;;;;;;3.03;2.20;;;2.10;99.90;;;2.68;100.00;99093.22;4980478;28;20467;-80
2023/04/03 05:22:59;;;;;;;1.90;1.70;;;2.10;99.90;;;2.66;100.00;99088.19;4984278;28;20860;-79
2023/04/03 05:25:29;;;;;;;2.90;2.20;;;2.20;99.90;;;2.65;100.00;99093.47;4980358;28;20467;-80
2023/04/03 05:27:59;;;;;;;3.10;2.00;;;2.10;99.90;;;2.66;100.00;99090.78;4976412;28;20520;-79
2023/04/03 05:30:29;;;;;;;3.33;2.10;;;2.20;99.90;;;2.69;100.00;99100.06;4992653;28;20466;-79
2023/04/03 05:33:02;;;;;;;4.00;2.60;;;2.10;99.90;;;2.72;100.00;99102.41;4993030;28;20463;-79
2023/04/03 05:35:33;;;;;;;1.97;1.83;;;2.10;99.90;;;2.69;100.00;99105.22;4989740;28;20480;-79
2023/04/03 05:38:03;;;;;;;1.60;1.50;;;2.10;99.90;;;2.68;100.00;99106.13;4995441;28;20471;-78
2023/04/03 05:40:32;;;;;;;4.90;1.80;;;2.10;99.90;;;2.64;100.00;99107.31;4985912;28;20994;-79
2023/04/03 05:43:03;;;;;;;3.25;2.05;;;2.10;99.90;;;2.65;100.00;99111.53;4992398;28;21357;-79
2023/04/03 05:45:32;;;;;;;3.10;1.97;;;2.10;99.90;;;2.63;100.00;99105.66;4993283;28;20508;-79
2023/04/03 05:48:05;;;;;;;3.63;1.93;;;2.10;99.90;;;2.64;100.00;99109.91;4988679;28;20468;-79
2023/04/03 05:50:35;;;;;;;2.07;1.67;;;2.10;99.90;;;2.67;100.00;99115.66;4986450;28;20470;-79
2023/04/03 05:53:06;;;;;;;2.97;2.23;;;2.00;99.90;;;2.67;100.00;99120.84;4985726;28;20559;-79
2023/04/03 05:55:35;;;;;;;7.00;2.10;;;2.10;99.90;;;2.67;100.00;99118.25;4992098;28;20557;-79
2023/04/03 05:58:06;;;;;;;2.20;1.93;;;2.10;99.90;;;2.64;100.00;99117.66;4985695;28;20570;-79
2023/04/03 06:00:38;;;;;;;2.60;2.30;;;2.10;99.90;;;2.64;100.00;99121.03;4988645;28;20845;-79
2023/04/03 06:03:10;;;;;;;2.30;1.93;;;2.10;99.90;;;2.66;100.00;99123.50;4997325;28;20513;-79
2023/04/03 06:05:41;;;;;;;2.50;2.30;;;2.10;99.90;;;2.65;100.00;99125.25;4987897;28;20542;-79
2023/04/03 06:08:12;;;;;;;2.63;2.03;;;2.10;99.90;;;2.71;100.00;99124.03;4980003;28;20513;-79
2023/04/03 06:10:42;;;;;;;5.40;2.63;;;2.10;99.90;;;2.70;100.00;99123.19;4988415;28;20457;-79
2023/04/03 06:13:12;;;;;;;3.70;2.50;;;2.10;99.90;;;2.74;100.00;99128.97;4990513;28;20508;-78
2023/04/03 06:15:41;;;;;;;3.60;2.27;;;2.20;99.90;;;2.75;100.00;99126.25;4989475;28;20472;-78
2023/04/03 06:18:14;;;;;;;5.10;2.50;;;2.20;99.90;;;2.76;100.00;99124.50;4999147;28;20465;-78
2023/04/03 06:20:43;;;;;;;6.00;2.53;;;2.20;99.90;;;2.77;100.00;99126.16;4986357;28;20462;-78
2023/04/03 06:23:14;;;;;;;4.13;2.20;;;2.20;99.90;;;2.83;100.00;99133.44;4991888;28;20557;-79
2023/04/03 06:25:43;;;;;;;2.47;2.27;;;2.20;99.90;;;2.87;100.00;99124.53;4982756;28;20584;-79
2023/04/03 06:28:13;;;;;;;3.00;2.70;;;2.30;99.90;;;2.90;100.00;99126.91;4988715;28;20972;-78
2023/04/03 06:30:43;;;;;;;2.90;2.20;;;2.30;99.90;;;2.95;100.00;99132.56;4993280;28;20529;-78
2023/04/03 06:33:15;;;;;;;3.93;2.10;;;2.40;99.90;;;2.98;100.00;99127.16;4995129;28;20459;-78
2023/04/03 06:35:46;;;;;;;4.00;2.47;;;2.40;99.90;;;3.04;100.00;99137.03;4999679;28;20555;-78
2023/04/03 06:38:18;;;;;;;2.20;2.00;;;2.40;99.90;;;3.10;100.00;99140.94;4990233;28;20468;-79
2023/04/03 06:40:48;;;;;;;3.37;2.33;;;2.50;99.90;;;3.17;100.00;99144.69;5001904;28;20517;-78
2023/04/03 06:43:18;;;;;;;4.90;2.30;;;2.50;99.90;;;3.21;100.00;99139.19;4991476;28;20541;-79
2023/04/03 06:45:48;;;;;;;3.60;1.93;;;2.60;99.90;;;3.27;100.00;99146.50;4999578;28;20504;-78
2023/04/03 06:48:20;;;;;;;4.27;1.93;;;2.70;99.90;;;3.32;100.00;99147.00;4997067;28;20535;-79
2023/04/03 06:50:50;;;;;;;7.03;1.83;;;2.70;99.90;;;3.37;100.00;99139.69;4990383;28;20475;-79
2023/04/03 06:53:19;;;;;;;1.50;1.40;;;2.80;99.90;;;3.45;100.00;99144.31;4991191;28;20468;-78
2023/04/03 06:55:49;;;;;;;4.47;1.80;;;2.80;99.90;;;3.50;100.00;99140.44;4984845;28;20516;-79
2023/04/03 06:58:20;;;;;;;3.47;1.70;;;2.90;99.90;;;3.58;100.00;99137.25;4989003;28;20853;-79
2023/04/03 07:00:51;;;;;;;4.30;2.10;;;2.90;99.90;;;3.67;100.00;99148.69;5000667;28;20970;-79
2023/04/03 07:03:23;;;;;;;4.83;1.80;;;3.00;99.90;;;3.73;100.00;99140.44;4990154;28;20467;-78
2023/04/03 07:05:53;;;;;;;2.17;1.63;;;3.20;99.90;;;3.77;100.00;99152.22;4989828;28;20510;-79
2023/04/03 07:08:23;;;;;;;2.87;1.77;;;3.20;99.90;;;3.82;100.00;99157.84;4980699;28;20481;-78
2023/04/03 07:10:52;;;;;;;2.80;1.10;;;3.20;99.90;;;3.86;100.00;99156.69;4992287;28;20985;-79
2023/04/03 07:13:22;;;;;;;2.77;1.60;;;3.30;99.90;;;3.88;100.00;99152.22;4981891;28;20930;-79
2023/04/03 07:15:54;;;;;;;6.10;1.97;;;3.40;99.90;;;3.92;100.00;99159.63;4989452;28;20472;-79
2023/04/03 07:18:26;;;;;;;2.90;1.80;;;3.40;99.90;;;3.97;100.00;99157.50;4998074;28;20465;-79
2023/04/03 07:20:56;;;;;;;3.63;1.50;;;3.50;99.90;;;4.01;100.00;99158.09;4990261;28;20970;-78
2023/04/03 07:23:25;;;;;;;1.90;1.70;;;3.50;99.90;;;4.07;100.00;99155.03;4990836;28;20711;-79
2023/04/03 07:25:55;;;;;;;3.93;1.90;;;3.50;99.90;;;4.15;100.00;99151.84;4997787;28;21014;-79
2023/04/03 07:28:25;;;;;;;2.97;2.13;;;3.60;99.90;;;4.21;100.00;99156.53;4994638;28;20486;-79
2023/04/03 07:31:02;;;;;;;1.87;1.50;;;3.60;99.90;;;4.28;100.00;99162.88;5004961;28;20507;-78
2023/04/03 07:33:34;;;;;;;7.70;1.80;;;3.80;99.90;;;4.30;100.00;99156.66;5000270;28;20470;-78
2023/04/03 07:36:07;;;;;;;3.23;1.73;;;3.80;99.90;;;4.39;100.00;99166.28;4986220;28;20578;-79
2023/04/03 07:38:36;;;;;;;1.73;1.53;;;3.90;99.90;;;4.46;100.00;99167.47;4985873;28;20870;-78
2023/04/03 07:41:06;;;;;;;5.07;1.50;;;4.00;99.90;;;4.53;100.00;99166.03;4990210;28;21011;-79
2023/04/03 07:43:37;;;;;;;5.23;1.80;;;4.00;99.90;;;4.57;100.00;99161.44;4995869;28;20467;-79
2023/04/03 07:46:07;;;;;;;2.07;1.87;;;4.00;99.90;;;4.60;100.00;99168.13;4984758;28;20914;-79
2023/04/03 07:48:38;;;;;;;2.87;1.80;;;4.10;99.90;;;4.60;100.00;99162.94;4987880;28;20506;-78
2023/04/03 07:51:07;;;;;;;6.30;2.10;;;4.00;99.90;;;4.64;100.00;99172.13;4982983;28;21064;-78
2023/04/03 07:53:38;;;;;;;5.67;1.67;;;4.10;99.90;;;4.67;100.00;99166.69;4989040;28;20490;-78
2023/04/03 07:56:08;;;;;;;1.73;1.33;;;4.20;99.90;;;4.70;100.00;99169.03;4994872;28;20507;-78
2023/04/03 07:58:38;;;;;;;1.43;1.30;;;4.20;99.90;;;4.75;100.00;99162.56;4999440;28;20474;-78
2023/04/03 08:01:08;;;;;;;2.60;1.63;;;4.20;99.90;;;4.77;100.00;99183.16;4991075;28;20473;-78
2023/04/03 08:03:41;;;;;;;6.00;1.60;;;4.30;99.90;;;4.77;100.00;99181.38;4995444;28;20476;-78
2023/04/03 08:06:10;;;;;;;5.13;1.63;;;4.30;99.90;;;4.76;100.00;99184.09;4983560;28;20503;-78
2023/04/03 08:08:47;;;;;;;2.77;1.60;;;4.30;99.90;;;4.74;100.00;99184.22;4980353;28;20490;-78
2023/04/03 08:11:16;;;;;;;1.73;1.40;;;4.20;99.90;;;4.78;100.00;99182.22;4986428;28;21039;-78
2023/04/03 08:13:47;;;;;;;6.67;1.90;;;4.20;99.90;;;4.76;100.00;99169.38;4990928;28;20826;-78
2023/04/03 08:16:21;;;;;;;3.87;1.83;;;4.20;99.90;;;4.82;100.00;99168.06;4990575;28;20473;-79
2023/04/03 08:18:52;;;;;;;6.17;1.70;;;4.30;99.90;;;4.83;100.00;99174.88;4988785;28;20458;-79
2023/04/03 08:21:22;;;;;;;2.40;1.87;;;4.30;99.90;;;4.84;100.00;99169.59;4988428;28;20492;-79
2023/04/03 08:23:52;;;;;;;3.57;1.83;;;4.30;99.90;;;4.88;100.00;99167.56;4983496;28;20461;-79
2023/04/03 08:26:22;;;;;;;4.80;2.00;;;4.40;99.90;;;4.87;100.00;99171.94;4976958;28;21361;-79
2023/04/03 08:28:52;;;;;;;2.53;1.90;;;4.40;99.90;;;4.87;100.00;99165.91;4990561;28;20471;-78
2023/04/03 08:31:22;;;;;;;1.97;1.67;;;4.30;99.90;;;4.91;100.00;99164.72;4988689;28;20464;-78
2023/04/03 08:33:53;;;;;;;1.73;1.27;;;4.40;99.90;;;4.94;100.00;99167.91;4986902;28;20486;-78
2023/04/03 08:36:25;;;;;;;4.17;2.13;;;4.40;99.90;;;5.01;100.00;99169.06;4984821;28;20568;-78
2023/04/03 08:38:57;;;;;;;3.80;1.70;;;4.50;99.90;;;5.08;100.00;99175.38;4994665;28;20481;-78
2023/04/03 08:41:35;;;;;;;1.90;1.80;;;4.60;99.90;;;5.11;100.00;99179.50;4983021;28;20469;-78
2023/04/03 08:44:25;;;;;;;3.63;1.87;;;4.60;99.90;;;5.16;100.00;99169.59;4989864;28;20476;-78
2023/04/03 08:47:18;;;;;;;6.10;2.03;;;4.60;99.90;;;5.20;100.00;99167.56;4989679;28;20540;-79
2023/04/03 08:49:54;;;;;;;2.40;1.43;;;4.60;99.90;;;5.22;100.00;99174.25;4990440;28;20472;-78
2023/04/03 08:52:35;;;;;;;3.30;1.60;;;4.70;99.90;;;5.27;100.00;99172.13;4991970;28;20522;-79
2023/04/03 08:55:09;;;;;;;3.23;1.83;;;4.70;99.90;;;5.36;100.00;99179.13;4987776;28;20492;-78
2023/04/03 08:57:45;;;;;;;6.03;1.83;;;4.90;99.90;;;5.36;100.00;99189.50;4989867;28;20473;-78
2023/04/03 09:00:24;;;;;;;4.00;1.90;;;4.80;99.90;;;5.38;100.00;99187.59;4993417;28;20457;-79
2023/04/03 09:02:57;;;;;;;6.43;1.70;;;4.80;99.90;;;5.43;100.00;99180.28;4993367;28;20461;-78
2023/04/03 09:05:45;;;;;;;4.50;1.80;;;4.90;99.90;;;5.48;100.00;99172.91;4990775;28;20575;-80
2023/04/03 09:08:25;;;;;;;6.67;2.30;;;4.90;99.90;;;5.55;100.00;99173.25;4979852;28;20869;-79
2023/04/03 09:11:10;;;;;;;3.60;1.60;;;5.00;99.90;;;5.69;100.00;99178.13;4983105;28;21001;-78
2023/04/03 09:13:50;;;;;;;4.70;1.80;;;5.20;99.90;;;5.75;100.00;99182.81;4981426;28;21189;-78
2023/04/03 09:16:40;;;;;;;2.17;1.60;;;5.20;99.90;;;5.84;100.00;99183.78;4985782;28;20574;-78
2023/04/03 09:19:20;;;;;;;2.60;1.50;;;5.40;99.90;;;5.85;100.00;99185.44;4983762;28;20507;-79
2023/04/03 09:21:52;;;;;;;4.03;1.53;;;5.40;99.90;;;5.89;100.00;99186.84;4987807;28;20488;-78
2023/04/03 09:24:26;;;;;;;1.50;1.40;;;5.40;99.90;;;5.91;98.57;99172.78;4983324;28;20561;-78
2023/04/03 09:27:02;;;;;;;3.13;1.20;;;5.50;99.90;;;6.02;99.70;99182.28;4981413;28;20513;-79
2023/04/03 09:29:33;;;;;;;6.47;1.47;;;5.40;99.90;;;6.06;98.28;99183.66;4983521;28;20489;-78
2023/04/03 09:32:19;;;;;;;2.20;1.97;;;5.60;99.90;;;6.08;96.06;99176.53;4990347;28;20475;-78
2023/04/03 09:34:52;;;;;;;5.83;1.40;;;5.60;99.90;;;6.07;93.38;99165.34;4990811;28;20464;-78
2023/04/03 09:37:46;;;;;;;12.93;1.57;;;5.50;99.90;;;6.16;96.13;99168.94;4983548;28;20496;-78
2023/04/03 09:40:40;;;;;;;1.50;1.40;;;5.60;99.90;;;6.30;97.08;99155.59;4992240;28;20483;-78
2023/04/03 09:43:30;;;;;;;2.80;1.67;;;5.80;99.90;;;6.38;95.45;99153.16;4966951;28;20464;-78
2023/04/03 09:46:26;;;;;;;4.57;1.60;;;5.90;99.90;;;6.47;96.63;99154.13;4987128;28;21030;-79
2023/04/03 09:49:00;;;;;;;5.50;1.50;;;6.00;99.90;;;6.52;95.42;99152.78;4987615;28;20483;-78
2023/04/03 09:51:38;;;;;;;5.10;1.77;;;6.10;99.90;;;6.55;94.23;99164.69;4987053;28;20466;-78
2023/04/03 09:54:37;;;;;;;2.43;1.40;;;6.10;99.90;;;6.55;92.27;99165.50;4984239;28;20460;-78
2023/04/03 09:57:11;;;;;;;4.63;1.70;;;6.10;99.90;;;6.55;90.21;99167.28;4991635;28;20550;-78
2023/04/03 09:59:59;;;;;;;6.03;1.73;;;6.10;99.90;;;6.47;87.48;99161.91;4980137;28;20521;-78
2023/04/03 10:02:55;;;;;;;1.90;1.50;;;6.00;99.90;;;6.46;87.23;99176.69;4987980;28;20468;-78
2023/04/03 10:05:54;;;;;;;2.23;1.80;;;6.00;99.90;;;6.41;84.72;99178.03;4987707;28;20473;-79
2023/04/03 10:08:29;;;;;;;5.87;1.60;;;5.90;99.90;;;6.38;84.57;99167.91;4981993;28;20488;-78
2023/04/03 10:11:19;;;;;;;7.23;1.53;;;5.90;99.90;;;6.39;84.53;99170.38;4980487;28;20467;-78
2023/04/03 10:14:18;;;;;;;3.00;1.40;;;5.90;99.90;;;6.37;82.33;99174.88;4992822;28;20532;-78
2023/04/03 10:16:56;;;;;;;3.60;1.60;;;5.90;99.90;;;6.36;81.58;99181.03;4984901;28;20472;-78
2023/04/03 10:19:42;;;;;;;4.07;1.47;;;5.90;99.90;;;6.30;80.46;99171.19;4994911;28;20465;-79
2023/04/03 10:22:27;;;;;;;1.57;1.30;;;5.90;99.90;;;6.30;79.86;99178.97;4977245;28;20532;-79
2023/04/03 10:25:14;;;;;;;1.90;1.30;;;5.80;99.90;;;6.34;80.18;99171.72;4979584;28;20465;-78
2023/04/03 10:27:56;;;;;;;2.63;1.67;;;5.90;99.90;;;6.33;81.46;99159.69;4984308;28;20515;-78
2023/04/03 10:30:42;;;;;;;2.70;1.47;;;5.80;99.90;;;6.40;83.14;99161.63;4988754;28;20515;-78
2023/04/03 10:33:34;;;;;;;3.37;1.40;;;5.90;99.90;;;6.45;84.15;99153.44;4993654;28;20507;-78
2023/04/03 10:36:34;;;;;;;1.93;1.20;;;6.00;99.90;;;6.53;84.43;99157.00;4986114;28;20532;-78
2023/04/03 10:39:16;;;;;;;1.60;1.50;;;6.00;99.90;;;6.58;85.29;99165.22;4997211;28;20496;-78
2023/04/03 10:42:03;;;;;;;5.57;1.70;;;6.10;99.90;;;6.57;80.92;99163.56;4981401;28;20479;-78
2023/04/03 10:45:15;;;;;;;8.07;2.10;;;6.10;99.80;;;6.61;82.03;99155.50;4992192;28;20871;-78
2023/04/03 10:48:02;;;;;;;11.17;1.37;;;6.10;99.90;;;6.63;82.47;99156.22;4987484;28;20542;-78
2023/04/03 10:50:49;;;;;;;3.23;1.20;;;6.10;99.90;;;6.71;84.20;99159.75;4996926;28;20524;-78
2023/04/03 10:53:32;;;;;;;2.77;1.50;;;6.10;99.90;;;6.73;82.99;99151.84;4999241;28;20468;-78
2023/04/03 10:56:14;;;;;;;2.97;1.60;;;6.20;99.90;;;6.79;82.86;99151.28;4981716;28;20906;-79